Startpagina
METAR-TAF:

METAR-TAF

Vliegvelden :

Rankin Inlet, Nunavut, Canada

breedte: 62-49N, lengte: 092-07W, hoogte: 31 m

Actueel weer

Dit bericht is 1 uur en het 11 minuten geleden gemaakt, om 10:00 UTC
Wind 16 kt uit het oostnoordoosten met uitschieters tot 22 kt
Temperatuur -14°C
Vochtigheid 78%
Druk 1028 hPa
Zicht: 24.1 km
Onbewolkt

METAR: CYRT 051000Z 07016G22KT 15SM SKC M14/M17 A3035 RMK SLP284

Tijdstip: 06:11 (11:11 UTC)

Verwachting

Dit bericht is 5 uur en het 32 minuten geleden gemaakt, om 05:39 UTC
Verwachting geldig van 05 om 06 UTC tot 05 om 18 UTC
Wind 15 kt uit het oosten met uitschieters tot 25 kt
Zicht: 10 km
Onbewolkt

TAF: CYRT 050539Z 0506/0518 08015G25KT P6SM SKC RMK NXT FCST BY 051200Z

Waarnemingen en weersverwachtingen van meer dan 4000 vliegvelden (METAR en TAF).

De beschikbare stations zijn de gele en rode punten op de kaart.

Ga met uw muis naar het station om de naam te zien.

Klik dan om waarnemingen en weersverwachtingen te zien.

kaart wijzigen: klik op de groene knoppen met een zwart kruis om in te zoomen, op de groene knop met een streepje om uit te zoomen of op de groene pijlen voor aangrenzende kaarten.


METAR-TAF: